« Back
NWS Peachtree City, Ga » Text Product » AHN Terminal Aerodrome Forecast


Printer-friendly Version
Current Version              Previous Versions:   1  2  3  4  5  6  7  8  9  

Terminal Aerodrome Forecast

554
FTUS42 KFFC 140527
TAFAHN
TAF
KAHN 140527Z 1406/1506 04005KT P6SM FEW200
     FM141300 08007KT P6SM BKN150
     FM142300 09006KT P6SM BKN060
     FM150400 08007KT P6SM BKN035=

USA.gov is the U.S. government's official web portal to all federal, state and local government web resources and services.